Terminal Aerodrome Forecast
Issued by NWS

Home | Current Version | Previous Version | Text Only | Print | Product List | Glossary On
Versions: 1 2 3 4 5 6 7 8 9 10 11 12 13 14 15 16 17 18 19
688
FTUS43 KEAX 301845 AAA
TAFSTJ
TAF AMD
KSTJ 301845Z 3019/0118 06007KT 3SM -SHRA OVC025
     FM302100 14009KT P6SM -SHRADZ OVC025
     FM010400 VRB04KT P6SM VCSH OVC008
     FM011500 29016KT P6SM OVC015=

USA.gov is the U.S. government's official web portal to all federal, state and local government web resources and services.